Time;durP1;ratioP1;P1;durP2;ratioP2;P2;SDS_P1;SDS_P2;PMS_P1;PMS_P2;Temp;Humidity;BMP_temperature;BMP_pressure;BME280_temperature;BME280_humidity;BME280_pressure;Samples;Min_cycle;Max_cycle;Signal;HPM_P1;HPM_P2
2023/01/26 00:00:19;;;;;;;96.60;47.30;;;;;;;1.32;96.59;101578.05;105281;1260;98479;-76
2023/01/26 00:03:18;;;;;;;96.60;45.70;;;;;;;1.34;96.55;101572.80;105286;1261;102632;-75
2023/01/26 00:06:04;;;;;;;101.10;48.90;;;;;;;1.34;96.42;101568.77;105171;1256;99054;-76
2023/01/26 00:08:52;;;;;;;101.00;47.40;;;;;;;1.32;96.33;101568.88;105128;1256;97994;-75
2023/01/26 00:11:38;;;;;;;91.40;45.90;;;;;;;1.32;96.37;101569.80;105075;1261;97975;-75
2023/01/26 00:14:23;;;;;;;91.00;44.90;;;;;;;1.33;96.47;101570.77;105128;1265;99791;-75
2023/01/26 00:17:09;;;;;;;89.90;45.30;;;;;;;1.34;96.51;101565.63;105226;1259;102603;-75
2023/01/26 00:19:56;;;;;;;91.80;45.90;;;;;;;1.34;96.41;101567.17;105172;1260;101557;-75
2023/01/26 00:22:42;;;;;;;92.40;45.80;;;;;;;1.34;96.37;101563.29;105324;1256;99226;-75
2023/01/26 00:25:27;;;;;;;102.70;49.90;;;;;;;1.34;96.47;101559.47;105250;1259;97948;-76
2023/01/26 00:28:13;;;;;;;97.30;47.90;;;;;;;1.34;96.43;101554.67;105238;1260;97890;-75
2023/01/26 00:31:09;;;;;;;91.50;45.40;;;;;;;1.35;96.50;101556.36;105147;1256;101337;-75
2023/01/26 00:33:55;;;;;;;94.70;45.70;;;;;;;1.36;96.42;101553.67;105173;1260;100243;-75
2023/01/26 00:36:41;;;;;;;88.20;44.70;;;;;;;1.37;96.63;101551.48;105131;1255;98403;-75
2023/01/26 00:39:26;;;;;;;94.60;45.40;;;;;;;1.38;96.57;101552.99;105220;1256;99146;-74
2023/01/26 00:42:12;;;;;;;93.30;44.90;;;;;;;1.40;96.65;101552.00;106346;1257;98610;-74
2023/01/26 00:45:00;;;;;;;96.10;44.40;;;;;;;1.41;96.69;101555.06;105313;1260;101395;-75
2023/01/26 00:47:45;;;;;;;90.70;45.10;;;;;;;1.41;96.53;101554.55;105160;1256;100585;-75
2023/01/26 00:50:32;;;;;;;92.00;44.40;;;;;;;1.41;96.69;101551.91;105176;1260;99063;-74
2023/01/26 00:53:17;;;;;;;91.60;44.00;;;;;;;1.42;96.63;101548.67;105149;1261;97908;-74
2023/01/26 00:56:04;;;;;;;88.80;45.70;;;;;;;1.43;96.59;101546.34;105377;1262;98595;-74
2023/01/26 00:58:51;;;;;;;90.90;44.40;;;;;;;1.43;96.64;101541.39;107832;1255;102584;-75
2023/01/26 01:01:37;;;;;;;92.00;45.00;;;;;;;1.44;96.52;101540.47;105084;1262;100412;-75
2023/01/26 01:04:22;;;;;;;88.40;46.10;;;;;;;1.44;96.49;101541.29;105149;1261;98482;-74
2023/01/26 01:07:08;;;;;;;90.20;42.40;;;;;;;1.45;96.60;101541.95;105203;1256;97983;-75
2023/01/26 01:09:53;;;;;;;86.30;43.20;;;;;;;1.46;96.55;101542.96;105051;1256;98517;-76
2023/01/26 01:12:39;;;;;;;91.20;44.50;;;;;;;1.46;96.50;101543.45;105104;1261;101439;-75
2023/01/26 01:15:24;;;;;;;89.20;44.30;;;;;;;1.46;96.45;101540.67;105145;1260;100782;-75
2023/01/26 01:18:10;;;;;;;85.40;42.80;;;;;;;1.45;96.51;101537.73;105161;1256;97801;-75
2023/01/26 01:20:55;;;;;;;90.50;45.70;;;;;;;1.45;96.53;101536.14;105008;1261;98514;-75
2023/01/26 01:23:42;;;;;;;86.60;43.70;;;;;;;1.46;96.55;101531.30;105198;1260;98556;-75
2023/01/26 01:26:27;;;;;;;89.50;43.80;;;;;;;1.47;96.59;101527.20;105184;1260;102072;-76
2023/01/26 01:29:13;;;;;;;93.70;47.60;;;;;;;1.47;96.61;101522.84;103923;1260;1878245;-76
2023/01/26 01:31:59;;;;;;;85.80;43.10;;;;;;;1.48;96.72;101519.56;105097;1260;98075;-75
2023/01/26 01:34:48;;;;;;;90.50;44.50;;;;;;;1.49;96.74;101505.93;105171;1258;97961;-76
2023/01/26 01:37:35;;;;;;;87.90;42.80;;;;;;;1.50;96.77;101502.91;105285;1256;98607;-74
2023/01/26 01:40:21;;;;;;;91.20;43.80;;;;;;;1.47;96.59;101491.85;105310;1259;101347;-74
2023/01/26 01:43:11;;;;;;;85.40;43.10;;;;;;;1.46;96.63;101485.23;105138;1259;99598;-74
2023/01/26 01:45:59;;;;;;;88.90;44.30;;;;;;;1.46;96.71;101481.71;105107;1256;98589;-75
2023/01/26 01:48:51;;;;;;;89.90;43.40;;;;;;;1.46;96.83;101479.60;105079;1260;98025;-75
2023/01/26 01:51:42;;;;;;;84.20;43.50;;;;;;;1.45;96.70;101476.67;105312;1256;98496;-75
2023/01/26 01:54:36;;;;;;;86.50;41.30;;;;;;;1.43;96.73;101475.02;108393;1256;102574;-76
2023/01/26 01:57:26;;;;;;;82.50;42.10;;;;;;;1.42;96.80;101473.39;106269;1257;99029;-74
2023/01/26 02:00:17;;;;;;;92.10;44.60;;;;;;;1.40;96.77;101469.79;105244;1257;98039;-75
2023/01/26 02:03:12;;;;;;;82.10;40.90;;;;;;;1.41;96.92;101464.44;105279;1257;98041;-75
2023/01/26 02:06:00;;;;;;;86.70;44.10;;;;;;;1.44;96.96;101465.14;105177;1257;98477;-75
2023/01/26 02:08:51;;;;;;;85.70;44.80;;;;;;;1.45;97.01;101461.22;105248;1257;101331;-74
2023/01/26 02:11:39;;;;;;;;;;;;;;;1.44;96.92;101458.60;105185;1261;100658;-74
2023/01/26 02:14:26;;;;;;;82.50;41.10;;;;;;;1.42;96.97;101449.27;105193;1261;97993;-75
2023/01/26 02:17:12;;;;;;;86.10;43.70;;;;;;;1.41;96.96;101446.02;105332;1260;97981;-74
2023/01/26 02:20:13;;;;;;;84.50;42.10;;;;;;;1.40;96.94;101448.16;105120;1256;97957;-74
2023/01/26 02:23:06;;;;;;;86.60;42.60;;;;;;;1.42;97.04;101443.99;105107;1260;101339;-75
2023/01/26 02:25:51;;;;;;;87.70;42.90;;;;;;;1.43;97.19;101444.98;105285;1256;99728;-75
2023/01/26 02:28:39;;;;;;;83.50;41.30;;;;;;;1.44;97.17;101444.73;105147;1260;97860;-76
2023/01/26 02:31:25;;;;;;;82.10;41.80;;;;;;;1.43;96.96;101444.05;105134;1260;97983;-76
2023/01/26 02:34:12;;;;;;;87.10;44.50;;;;;;;1.41;96.97;101439.61;105434;1257;98407;-75
2023/01/26 02:36:59;;;;;;;85.00;42.60;;;;;;;1.42;97.24;101437.65;105118;1261;102595;-75
2023/01/26 02:39:58;;;;;;;78.10;42.80;;;;;;;1.44;97.13;101433.63;105324;1260;101489;-75
2023/01/26 02:42:44;;;;;;;80.90;41.00;;;;;;;1.45;97.13;101431.81;105107;1260;98895;-75
2023/01/26 02:45:32;;;;;;;80.70;41.80;;;;;;;1.47;97.41;101433.24;105245;1261;97956;-75
2023/01/26 02:51:23;;;;;;;83.90;43.00;;;;;;;1.49;97.30;101435.92;105159;1259;101335;-76
2023/01/26 02:55:20;;;;;;;79.00;41.70;;;;;;;1.48;97.30;101430.31;105168;1256;101526;-75
2023/01/26 02:57:16;;;;;;;82.80;42.00;;;;;;;1.48;97.32;101423.31;105032;1261;99237;-75
2023/01/26 03:00:11;;;;;;;79.30;41.30;;;;;;;1.48;97.36;101418.00;105136;1261;97990;-75
2023/01/26 03:02:59;;;;;;;84.30;43.40;;;;;;;1.50;97.41;101416.65;105206;1261;98518;-75
2023/01/26 03:05:45;;;;;;;85.50;42.30;;;;;;;1.52;97.44;101413.52;105114;1260;103079;-73
2023/01/26 03:08:31;;;;;;;78.00;39.60;;;;;;;1.53;97.40;101409.40;105263;1256;99135;-76
2023/01/26 03:11:17;;;;;;;82.10;42.70;;;;;;;1.54;97.43;101400.67;105273;1260;99266;-77
2023/01/26 03:14:02;;;;;;;85.70;43.20;;;;;;;1.53;97.31;101397.61;105247;1258;98110;-77
2023/01/26 03:16:48;;;;;;;79.80;40.90;;;;;;;1.51;97.35;101393.52;105135;1258;98515;-74
2023/01/26 03:28:47;;;;;;;81.30;41.90;;;;;;;1.51;97.46;101374.71;105120;1260;97977;-75
2023/01/26 03:31:32;;;;;;;84.30;41.50;;;;;;;1.51;97.56;101372.56;105117;1260;99327;-74
2023/01/26 03:34:19;;;;;;;78.90;41.30;;;;;;;1.52;97.61;101370.55;105070;1256;103263;-75
2023/01/26 03:37:05;;;;;;;85.20;43.20;;;;;;;1.54;97.68;101368.83;105188;1256;99071;-75
2023/01/26 03:58:31;;;;;;;81.60;42.50;;;;;;;1.55;97.80;101356.47;105140;1257;98077;-75
2023/01/26 04:01:19;;;;;;;81.50;40.70;;;;;;;1.55;97.51;101354.70;105263;1264;98008;-75
2023/01/26 04:10:16;;;;;;;82.10;42.70;;;;;;;1.56;97.71;101349.36;105147;1260;97973;-75
2023/01/26 04:22:20;;;;;;;79.80;41.60;;;;;;;1.61;97.72;101346.69;105151;1261;100143;-75
2023/01/26 04:25:08;;;;;;;76.10;39.80;;;;;;;1.61;97.61;101346.86;105269;1262;97929;-74
2023/01/26 04:27:54;;;;;;;78.40;42.40;;;;;;;1.62;97.69;101343.48;105160;1259;97892;-75
2023/01/26 04:30:40;;;;;;;83.00;43.30;;;;;;;1.62;97.62;101345.73;105484;1259;98504;-75
2023/01/26 04:33:26;;;;;;;78.70;40.40;;;;;;;1.64;97.59;101345.80;105299;1259;102586;-75
2023/01/26 04:36:11;;;;;;;84.50;41.90;;;;;;;1.64;97.68;101346.29;105252;1259;100343;-74
2023/01/26 04:39:00;;;;;;;85.40;43.00;;;;;;;1.65;97.77;101342.85;105107;1261;98025;-75
2023/01/26 04:41:47;;;;;;;82.50;41.20;;;;;;;1.67;97.74;101347.67;105112;1261;98075;-76
2023/01/26 04:44:34;;;;;;;83.90;44.00;;;;;;;1.67;97.66;101352.41;105177;1260;98909;-75
2023/01/26 04:47:21;;;;;;;83.30;43.60;;;;;;;1.68;97.65;101349.86;105535;1257;101364;-74
2023/01/26 04:50:07;;;;;;;78.40;42.10;;;;;;;1.69;97.53;101343.64;105242;1262;99182;-74
2023/01/26 04:52:53;;;;;;;77.90;41.20;;;;;;;1.69;97.57;101340.81;105053;1257;99902;-75
2023/01/26 04:55:38;;;;;;;82.90;43.40;;;;;;;1.69;97.44;101341.36;105172;1259;97958;-75
2023/01/26 04:58:24;;;;;;;81.50;40.50;;;;;;;1.69;97.45;101342.20;105114;1259;98500;-75
2023/01/26 05:01:10;;;;;;;82.90;43.90;;;;;;;1.70;97.57;101344.09;105156;1256;101325;-75
2023/01/26 05:03:59;;;;;;;91.90;48.20;;;;;;;1.70;97.49;101346.20;105394;1262;99840;-74
2023/01/26 05:06:46;;;;;;;91.30;49.10;;;;;;;1.70;97.29;101348.86;106811;1258;98825;-74
2023/01/26 05:09:31;;;;;;;93.40;49.40;;;;;;;1.70;97.27;101342.16;105102;1259;97860;-75
2023/01/26 05:12:41;;;;;;;95.10;50.20;;;;;;;1.71;97.35;101337.86;105254;1260;97954;-74
2023/01/26 05:15:36;;;;;;;94.90;52.30;;;;;;;1.71;97.38;101332.56;105189;1262;102417;-75
2023/01/26 05:18:31;;;;;;;97.20;49.60;;;;;;;1.71;97.38;101332.05;105347;1263;99437;-77
2023/01/26 05:21:26;;;;;;;94.30;49.00;;;;;;;1.71;97.42;101324.30;105428;1261;98983;-74
2023/01/26 05:24:11;;;;;;;89.30;44.60;;;;;;;1.70;97.37;101320.13;105332;1265;98524;-74
2023/01/26 05:27:21;;;;;;;85.10;44.00;;;;;;;1.71;97.52;101320.41;105573;1259;99237;-75
2023/01/26 05:30:10;;;;;;;81.90;42.00;;;;;;;1.71;97.42;101319.73;105148;1256;101302;-75
2023/01/26 05:33:02;;;;;;;81.90;41.90;;;;;;;1.70;97.37;101322.25;105182;1256;99080;-74
2023/01/26 05:35:48;;;;;;;82.80;44.30;;;;;;;1.71;97.39;101320.05;105138;1261;99260;-74
2023/01/26 05:38:34;;;;;;;83.60;41.80;;;;;;;1.71;97.40;101315.46;105154;1259;97956;-75
2023/01/26 05:41:19;;;;;;;87.10;43.00;;;;;;;1.71;97.46;101318.35;105160;1261;100907;-74
2023/01/26 05:44:17;;;;;;;85.70;43.20;;;;;;;1.71;97.45;101320.40;105137;1260;102908;-74
2023/01/26 05:47:13;;;;;;;85.60;42.00;;;;;;;1.72;97.55;101318.38;105209;1261;99067;-75
2023/01/26 05:50:00;;;;;;;90.00;47.20;;;;;;;1.73;97.56;101311.33;105091;1261;98642;-75
2023/01/26 05:52:49;;;;;;;88.70;44.40;;;;;;;1.73;97.45;101312.36;105774;1260;97968;-75
2023/01/26 05:55:34;;;;;;;88.80;44.30;;;;;;;1.74;97.52;101313.89;105088;1259;99226;-75
2023/01/26 05:58:20;;;;;;;93.00;45.70;;;;;;;1.74;97.59;101323.16;105151;1262;102185;-74
2023/01/26 06:01:07;;;;;;;91.00;45.70;;;;;;;1.75;97.55;101326.13;105144;1261;99686;-76
2023/01/26 06:03:58;;;;;;;86.80;43.60;;;;;;;1.76;97.57;101328.87;105299;1259;97993;-74
2023/01/26 06:06:47;;;;;;;88.20;45.00;;;;;;;1.77;97.62;101332.69;105322;1261;98039;-74
2023/01/26 06:09:41;;;;;;;85.90;43.90;;;;;;;1.77;97.61;101330.36;105484;1259;98574;-75
2023/01/26 06:12:34;;;;;;;90.20;45.90;;;;;;;1.78;97.56;101327.45;105376;1257;102576;-75
2023/01/26 06:15:34;;;;;;;82.00;42.50;;;;;;;1.79;97.48;101324.23;105085;1259;99068;-74
2023/01/26 06:18:19;;;;;;;86.00;44.70;;;;;;;1.78;97.44;101308.98;105267;1260;97892;-75
2023/01/26 06:21:11;;;;;;;98.40;48.90;;;;;;;1.75;97.32;101302.71;105127;1263;97931;-75
2023/01/26 06:23:56;;;;;;;88.40;45.40;;;;;;;1.73;97.30;101302.48;105431;1260;98487;-76
2023/01/26 06:26:43;;;;;;;94.80;46.90;;;;;;;1.72;97.31;101303.64;105289;1261;102212;-76
2023/01/26 06:29:29;;;;;;;96.40;46.60;;;;;;;1.71;97.41;101307.23;105236;1262;99084;-74
2023/01/26 06:32:15;;;;;;;99.00;48.30;;;;;;;1.71;97.47;101309.85;105086;1259;98458;-75
2023/01/26 06:35:05;;;;;;;96.40;50.40;;;;;;;1.72;97.57;101312.08;105099;1263;99341;-75
2023/01/26 06:37:51;;;;;;;91.70;43.90;;;;;;;1.70;97.54;101310.08;105765;1260;98116;-75
2023/01/26 06:40:37;;;;;;;86.30;44.30;;;;;;;1.68;97.34;101309.73;105519;1259;101310;-75
2023/01/26 06:43:23;;;;;;;83.40;42.10;;;;;;;1.66;97.50;101313.42;105068;1257;100599;-75
2023/01/26 06:46:08;;;;;;;86.30;44.60;;;;;;;1.66;97.70;101313.58;105146;1261;97951;-75
2023/01/26 06:48:55;;;;;;;90.40;43.00;;;;;;;1.68;97.75;101311.35;105116;1255;97967;-75
2023/01/26 06:52:03;;;;;;;85.90;42.70;;;;;;;1.68;97.72;101311.70;105119;1257;98494;-75
2023/01/26 06:55:04;;;;;;;91.60;44.90;;;;;;;1.67;97.74;101314.20;105117;1262;101330;-74
2023/01/26 06:58:11;;;;;;;102.50;47.30;;;;;;;1.69;97.94;101313.02;105337;1257;101295;-75
2023/01/26 07:01:19;;;;;;;99.20;43.70;;;;;;;1.70;97.97;101309.77;105100;1261;98054;-74
2023/01/26 07:04:04;;;;;;;89.50;44.20;;;;;;;1.68;97.79;101302.48;105989;1260;99257;-75
2023/01/26 07:06:50;;;;;;;91.30;44.80;;;;;;;1.65;97.77;101301.70;105157;1259;98042;-75
2023/01/26 07:09:36;;;;;;;100.80;49.00;;;;;;;1.65;98.02;101306.10;105157;1260;102606;-75
2023/01/26 07:12:21;;;;;;;92.50;47.30;;;;;;;1.66;98.07;101303.20;105087;1261;100425;-74
2023/01/26 07:15:08;;;;;;;85.10;42.80;;;;;;;1.66;98.06;101299.16;105146;1261;97915;-74
2023/01/26 07:17:56;;;;;;;89.10;43.50;;;;;;;1.66;98.14;101298.61;105126;1263;97990;-75
2023/01/26 07:20:41;;;;;;;123.20;59.30;;;;;;;1.66;98.24;101304.27;105051;1261;98547;-74
2023/01/26 07:23:26;;;;;;;90.20;45.50;;;;;;;1.65;98.20;101290.92;105238;1256;101327;-75
2023/01/26 07:26:13;;;;;;;84.40;42.40;;;;;;;1.62;97.98;101297.68;105229;1260;99088;-75
2023/01/26 07:28:58;;;;;;;192.70;86.30;;;;;;;1.62;98.21;101304.20;105137;1259;97875;-76
2023/01/26 07:31:43;;;;;;;137.70;64.00;;;;;;;1.64;98.39;101300.00;105351;1262;97972;-74
2023/01/26 07:34:29;;;;;;;87.40;45.10;;;;;;;1.66;98.37;101290.38;105144;1263;97957;-74
2023/01/26 07:37:15;;;;;;;76.50;40.60;;;;;;;1.66;98.29;101288.05;105124;1259;102577;-74
2023/01/26 07:40:00;;;;;;;76.60;39.00;;;;;;;1.67;98.31;101291.19;105125;1260;99697;-74
2023/01/26 07:42:46;;;;;;;88.90;45.10;;;;;;;1.69;98.44;101299.61;105178;1265;99023;-74
2023/01/26 07:45:50;;;;;;;88.10;48.80;;;;;;;1.71;98.41;101298.41;105155;1259;97950;-75
2023/01/26 07:48:37;;;;;;;84.00;45.10;;;;;;;1.74;98.44;101290.83;105052;1261;98429;-75
2023/01/26 07:51:22;;;;;;;82.50;39.60;;;;;;;1.75;98.40;101287.35;105066;1262;109844;-75
2023/01/26 07:54:10;;;;;;;71.80;36.00;;;;;;;1.76;98.15;101287.15;105157;1273;99805;-75
2023/01/26 07:56:55;;;;;;;77.20;38.10;;;;;;;1.76;98.14;101288.75;105260;1258;99428;-75
2023/01/26 07:59:41;;;;;;;77.20;38.30;;;;;;;1.77;98.34;101283.20;105152;1261;99267;-75
2023/01/26 08:02:26;;;;;;;75.70;39.10;;;;;;;1.78;98.20;101276.05;105414;1261;97751;-76
2023/01/26 08:05:11;;;;;;;70.90;36.30;;;;;;;1.79;98.21;101273.73;105277;1257;102102;-76
2023/01/26 08:07:58;;;;;;;76.20;38.50;;;;;;;1.80;98.24;101279.92;105078;1261;100285;-77
2023/01/26 08:10:43;;;;;;;78.50;38.20;;;;;;;1.82;98.36;101282.30;105197;1259;97941;-77
2023/01/26 08:13:30;;;;;;;74.00;38.20;;;;;;;1.82;98.33;101284.16;105341;1262;97960;-76
2023/01/26 08:16:16;;;;;;;75.40;37.10;;;;;;;1.85;98.32;101285.70;105156;1259;96368;-75
2023/01/26 08:19:02;;;;;;;79.30;38.20;;;;;;;1.88;98.37;101283.77;105146;1260;101338;-76
2023/01/26 08:21:47;;;;;;;73.90;36.90;;;;;;;1.90;98.36;101281.83;105194;1261;100087;-75
2023/01/26 08:24:33;;;;;;;73.80;37.90;;;;;;;1.90;98.25;101280.42;105056;1262;97917;-74
2023/01/26 08:27:18;;;;;;;72.30;35.40;;;;;;;1.92;98.34;101282.35;105128;1258;97954;-74
2023/01/26 08:30:04;;;;;;;82.00;39.00;;;;;;;1.94;98.15;101283.50;105171;1260;97933;-76
2023/01/26 08:32:49;;;;;;;77.90;39.10;;;;;;;1.95;98.23;101279.86;105092;1260;103725;-74
2023/01/26 08:35:35;;;;;;;76.90;36.20;;;;;;;1.96;98.19;101279.95;105452;1260;100809;-76
2023/01/26 08:38:21;;;;;;;67.70;34.80;;;;;;;1.98;98.25;101281.52;105344;1263;98096;-74
2023/01/26 08:41:06;;;;;;;68.80;35.50;;;;;;;2.04;98.64;101279.69;105280;1259;97951;-75
2023/01/26 08:43:52;;;;;;;69.90;36.90;;;;;;;2.07;98.40;101283.48;105267;1260;98451;-74
2023/01/26 08:46:37;;;;;;;73.60;37.20;;;;;;;2.08;98.12;101287.13;105372;1270;101501;-74
2023/01/26 08:49:23;;;;;;;75.40;36.40;;;;;;;2.10;98.00;101289.42;105546;1262;100374;-75
2023/01/26 08:52:08;;;;;;;70.90;35.50;;;;;;;2.13;97.89;101289.37;105617;1256;98939;-76
2023/01/26 08:54:54;;;;;;;76.00;36.60;;;;;;;2.14;97.80;101291.64;105434;1262;97958;-75
2023/01/26 08:57:40;;;;;;;76.70;39.80;;;;;;;2.16;97.87;101295.91;105460;1260;98465;-75
2023/01/26 09:00:26;;;;;;;69.40;36.50;;;;;;;2.19;97.99;101301.80;105427;1256;101670;-75
2023/01/26 09:03:12;;;;;;;73.40;38.60;;;;;;;2.20;97.75;101301.86;105183;1268;99090;-76
2023/01/26 09:05:59;;;;;;;72.90;35.80;;;;;;;2.23;97.87;101299.56;105129;1262;99264;-76
2023/01/26 09:08:45;;;;;;;74.20;38.20;;;;;;;2.25;97.69;101299.73;105521;1264;98030;-77
2023/01/26 09:11:30;;;;;;;71.30;34.90;;;;;;;2.28;97.78;101302.13;105491;1262;99052;-76
2023/01/26 09:14:15;;;;;;;78.10;38.50;;;;;;;2.29;97.59;101302.80;105425;1260;102040;-76
2023/01/26 09:17:01;;;;;;;76.50;37.30;;;;;;;2.29;97.59;101298.73;105553;1262;100012;-75
2023/01/26 09:19:47;;;;;;;78.30;37.50;;;;;;;2.30;97.72;101296.31;105224;1258;98014;-74
2023/01/26 09:22:32;;;;;;;76.90;38.80;;;;;;;2.31;97.64;101294.85;105240;1260;97980;-74
2023/01/26 09:25:18;;;;;;;77.30;37.00;;;;;;;2.33;97.65;101294.16;105171;1260;98482;-75
2023/01/26 09:28:05;;;;;;;75.70;39.20;;;;;;;2.36;97.58;101298.05;105231;1261;102277;-76
2023/01/26 09:30:50;;;;;;;76.60;37.70;;;;;;;2.37;97.54;101300.45;105194;1263;99416;-75
2023/01/26 09:33:36;;;;;;;79.70;39.50;;;;;;;2.38;97.55;101298.77;105149;1260;98609;-75
2023/01/26 09:36:21;;;;;;;79.80;39.10;;;;;;;2.39;97.50;101292.34;105241;1260;98648;-75
2023/01/26 09:39:07;;;;;;;85.30;41.70;;;;;;;2.39;97.36;101289.17;105147;1260;98505;-76
2023/01/26 09:42:23;;;;;;;73.60;38.30;;;;;;;2.40;97.34;101283.79;105475;1260;101346;-74
2023/01/26 09:45:25;;;;;;;78.50;39.30;;;;;;;2.41;97.40;101278.95;105504;1266;100358;-75
2023/01/26 09:48:21;;;;;;;78.30;38.60;;;;;;;2.44;97.67;101274.17;105502;1261;97955;-75
2023/01/26 09:51:22;;;;;;;79.60;40.10;;;;;;;2.46;97.53;101270.09;105410;1269;97966;-75
2023/01/26 09:54:15;;;;;;;75.40;39.50;;;;;;;2.48;97.56;101272.05;105143;1260;98402;-74
2023/01/26 09:57:09;;;;;;;85.20;42.50;;;;;;;2.51;97.51;101275.05;105267;1263;102359;-75
2023/01/26 10:00:29;;;;;;;83.80;42.20;;;;;;;2.53;97.33;101275.73;105089;1271;100328;-75
2023/01/26 10:03:32;;;;;;;79.20;38.90;;;;;;;2.55;97.34;101272.56;105240;1270;97978;-74
2023/01/26 10:06:27;;;;;;;87.90;42.90;;;;;;;2.57;97.12;101267.85;105103;1260;99117;-75
2023/01/26 10:09:44;;;;;;;81.40;41.10;;;;;;;2.55;96.92;101261.13;105209;1260;98474;-75
2023/01/26 10:12:34;;;;;;;87.50;47.20;;;;;;;2.56;96.83;101257.20;105140;1260;101326;-75
2023/01/26 10:15:30;;;;;;;87.30;45.40;;;;;;;2.57;96.76;101254.98;105452;1269;100300;-75
2023/01/26 10:18:28;;;;;;;88.50;46.00;;;;;;;2.59;96.99;101252.38;105257;1260;98589;-75
2023/01/26 10:21:17;;;;;;;96.30;46.90;;;;;;;2.62;97.12;101248.43;105039;1261;98071;-74
2023/01/26 10:24:04;;;;;;;93.70;45.80;;;;;;;2.64;96.93;101246.95;105140;1263;98653;-75
2023/01/26 10:26:55;;;;;;;99.50;46.80;;;;;;;2.66;96.74;101243.98;105149;1260;101376;-74
2023/01/26 10:29:40;;;;;;;87.60;42.50;;;;;;;2.67;96.67;101239.71;105038;1260;100179;-74
2023/01/26 10:32:26;;;;;;;82.50;43.30;;;;;;;2.68;96.77;101230.67;105050;1271;98904;-74
2023/01/26 10:35:18;;;;;;;90.50;41.10;;;;;;;2.69;96.82;101228.23;105087;1269;97987;-74
2023/01/26 10:38:33;;;;;;;72.70;38.10;;;;;;;2.71;96.72;101226.13;105080;1261;98478;-75
2023/01/26 10:41:18;;;;;;;68.90;34.70;;;;;;;2.71;96.29;101227.94;105102;1261;101515;-73
2023/01/26 10:44:19;;;;;;;73.50;35.40;;;;;;;2.70;96.03;101217.77;105116;1261;99184;-75
2023/01/26 10:47:14;;;;;;;69.20;34.70;;;;;;;2.70;95.85;101210.93;105359;1263;98498;-76
2023/01/26 10:50:18;;;;;;;60.60;32.30;;;;;;;2.69;95.67;101207.67;105276;1260;98188;-73
2023/01/26 10:53:05;;;;;;;64.40;32.90;;;;;;;2.68;95.67;101203.48;105042;1257;97861;-75
2023/01/26 10:56:16;;;;;;;68.60;33.30;;;;;;;2.67;95.51;101204.92;105023;1258;102044;-75
2023/01/26 10:59:07;;;;;;;66.10;33.60;;;;;;;2.68;95.44;101210.68;105125;1260;100309;-74
2023/01/26 11:02:13;;;;;;;65.90;33.40;;;;;;;2.70;95.30;101207.77;105014;1263;98899;-75
2023/01/26 11:05:07;;;;;;;65.90;33.70;;;;;;;2.69;95.29;101200.77;105084;1257;98071;-75
2023/01/26 11:07:59;;;;;;;60.90;30.80;;;;;;;2.69;95.06;101197.92;105035;1258;98536;-74
2023/01/26 11:10:51;;;;;;;61.40;32.50;;;;;;;2.69;94.86;101192.81;105086;1261;101329;-74
2023/01/26 11:13:36;;;;;;;58.60;30.40;;;;;;;2.70;94.96;101187.75;105141;1257;100418;-73
2023/01/26 11:16:25;;;;;;;59.60;31.30;;;;;;;2.71;94.84;101183.48;105109;1263;99192;-74
2023/01/26 11:19:39;;;;;;;59.90;30.70;;;;;;;2.70;94.56;101179.85;105158;1257;97984;-74
2023/01/26 11:22:38;;;;;;;58.00;30.20;;;;;;;2.70;94.54;101178.98;105131;1263;97849;-76
2023/01/26 11:25:31;;;;;;;60.50;28.30;;;;;;;2.72;94.48;101175.85;105115;1260;102257;-76
2023/01/26 11:28:39;;;;;;;60.40;30.60;;;;;;;2.74;94.38;101170.89;105156;1263;99089;-75
2023/01/26 11:31:59;;;;;;;59.70;27.90;;;;;;;2.77;94.27;101170.66;105064;1260;98988;-75
2023/01/26 11:35:14;;;;;;;49.80;26.90;;;;;;;2.77;94.01;101167.45;105031;1260;97946;-75
2023/01/26 11:38:29;;;;;;;52.70;27.20;;;;;;;2.76;93.68;101161.55;105149;1257;98498;-75
2023/01/26 11:41:26;;;;;;;51.00;27.70;;;;;;;2.75;93.61;101160.96;105081;1265;102058;-74
2023/01/26 11:44:40;;;;;;;51.30;26.50;;;;;;;2.75;93.63;101160.58;105176;1258;99231;-75
2023/01/26 11:47:41;;;;;;;53.90;28.40;;;;;;;2.74;93.27;101162.58;105094;1258;98988;-75
2023/01/26 11:50:37;;;;;;;52.60;27.00;;;;;;;2.73;93.08;101157.93;105249;1258;97961;-75
2023/01/26 11:53:41;;;;;;;49.90;27.20;;;;;;;2.73;93.22;101153.84;105050;1264;97934;-75
2023/01/26 11:56:39;;;;;;;51.40;26.50;;;;;;;2.79;93.61;101143.45;105135;1261;102419;-75
2023/01/26 11:59:35;;;;;;;52.20;27.10;;;;;;;2.82;92.97;101139.15;105153;1257;100682;-75
2023/01/26 12:02:32;;;;;;;44.30;25.00;;;;;;;2.81;92.73;101137.13;105093;1260;99009;-73
2023/01/26 12:05:25;;;;;;;49.70;27.00;;;;;;;2.80;92.61;101137.42;105070;1261;97951;-74
2023/01/26 12:08:19;;;;;;;52.10;26.80;;;;;;;2.81;92.50;101141.97;105136;1261;99637;-74
2023/01/26 12:11:21;;;;;;;54.90;27.50;;;;;;;2.82;92.56;101142.69;105127;1258;101342;-74
2023/01/26 12:14:33;;;;;;;56.10;25.50;;;;;;;2.83;92.21;101137.91;105135;1260;99444;-74
2023/01/26 12:17:50;;;;;;;51.00;26.00;;;;;;;2.80;91.95;101135.70;105075;1257;97975;-73
2023/01/26 12:20:44;;;;;;;54.30;26.70;;;;;;;2.79;92.27;101134.86;105109;1257;97967;-74
2023/01/26 12:23:42;;;;;;;48.00;25.90;;;;;;;2.80;92.26;101131.39;105622;1262;97861;-73
2023/01/26 12:26:34;;;;;;;51.70;27.30;;;;;;;2.83;92.24;101127.66;105433;1257;101369;-74
2023/01/26 12:30:05;;;;;;;54.60;26.70;;;;;;;2.84;91.89;101130.95;105195;1257;99115;-72
2023/01/26 12:32:51;;;;;;;48.10;27.40;;;;;;;2.86;92.19;101130.73;105096;1260;99167;-73
2023/01/26 12:35:50;;;;;;;57.90;29.30;;;;;;;2.89;92.07;101128.89;105091;1257;97976;-74
2023/01/26 12:38:49;;;;;;;55.90;27.60;;;;;;;2.91;92.06;101129.46;105053;1262;98406;-74
2023/01/26 12:41:45;;;;;;;54.30;27.30;;;;;;;2.92;91.77;101133.45;105165;1261;101444;-74
2023/01/26 12:44:45;;;;;;;52.40;27.30;;;;;;;2.92;91.93;101129.88;105211;1257;99133;-75
2023/01/26 12:47:38;;;;;;;60.60;29.20;;;;;;;2.92;91.76;101126.56;105066;1261;97940;-74
2023/01/26 12:50:29;;;;;;;51.30;26.50;;;;;;;2.91;91.52;101122.41;105071;1260;98744;-75
2023/01/26 12:53:18;;;;;;;;;;;;;;;2.92;91.69;101121.96;105091;1261;97954;-74
2023/01/26 12:56:20;;;;;;;59.20;29.70;;;;;;;2.92;91.63;101123.57;105460;1257;102589;-76
2023/01/26 12:59:19;;;;;;;54.80;28.90;;;;;;;2.92;91.48;101120.05;105309;1263;99094;-74
2023/01/26 13:02:13;;;;;;;64.30;29.40;;;;;;;2.92;91.71;101116.11;105144;1257;98885;-75
2023/01/26 13:05:01;;;;;;;60.60;31.70;;;;;;;2.93;91.73;101115.36;105102;1262;97883;-74
2023/01/26 13:07:46;;;;;;;62.40;30.50;;;;;;;2.93;91.52;101114.50;105240;1258;99314;-75
2023/01/26 13:10:48;;;;;;;58.60;29.60;;;;;;;2.94;91.68;101116.35;105418;1257;101439;-74
2023/01/26 13:13:56;;;;;;;63.70;32.20;;;;;;;2.94;91.44;101115.29;107254;1257;99263;-75
2023/01/26 13:16:41;;;;;;;61.20;32.50;;;;;;;2.92;91.68;101111.71;105256;1261;98309;-75
2023/01/26 13:19:51;;;;;;;57.80;30.80;;;;;;;2.92;91.73;101106.77;105264;1261;97964;-75
2023/01/26 13:22:39;;;;;;;58.70;30.40;;;;;;;2.92;91.71;101104.84;105216;1260;97798;-75
2023/01/26 13:25:30;;;;;;;60.80;32.10;;;;;;;2.93;91.72;101106.20;105114;1263;101385;-76
2023/01/26 13:28:29;;;;;;;62.00;34.40;;;;;;;2.92;91.53;101109.79;106117;1261;100281;-74
2023/01/26 13:31:32;;;;;;;64.10;32.40;;;;;;;2.92;91.30;101114.42;106295;1257;97897;-75
2023/01/26 13:34:27;;;;;;;68.00;34.70;;;;;;;2.88;91.44;101116.14;105704;1258;97955;-75
2023/01/26 13:37:30;;;;;;;67.50;34.10;;;;;;;2.87;91.50;101117.77;105118;1257;98403;-76
2023/01/26 13:40:25;;;;;;;70.20;34.90;;;;;;;2.87;91.71;101116.73;105296;1261;102603;-74